Sunday, August 19, 2018, 12:28 AM GMT
Back to Local

CYYG, Charlottetown, P. E. I.

Location: , , Canada Lat: 46.283
Local Time: 12:28 AM GMT ( 0:28 GMT) Lon: -63.133
Time Zone: GMT Elev: 157 ft

Show me the last for .
Show Coded

Time T Td Feel RH Dir Speed Gust Alt SLP Vis Weather Sky Remarks
2018-08-19 00:00 63 63 - 100 30° 18 25 29.80 29.81 5 -RA BR OVC009 None
2018-08-18 23:00 63 63 - 100 30° 16 22 29.78 29.79 4 -RA BR BKN006 OVC015 None
2018-08-18 22:46 63 63 - 100 40° 18 26 29.78 29.78 3 -RA BR BKN005 OVC012 None
2018-08-18 22:22 63 63 - 100 40° 18 - 29.78 29.78 2 -RA BR SCT005 OVC027 None
2018-08-18 22:00 63 63 - 100 20° 14 - 29.77 29.78 8 -RA OVC006 None
2018-08-18 21:00 63 63 - 100 40° 9 - 29.76 29.77 5 -RA BR OVC005 None
2018-08-18 20:00 61 61 - 100 60° 10 - 29.78 29.78 5 -RA BR BKN006 OVC028 None
2018-08-18 19:00 61 61 - 100 60° 10 - 29.80 29.80 3 -RA BR BKN005 OVC029 None
2018-08-18 18:00 61 61 - 100 90° 14 - 29.81 29.81 2 -RA BR BKN004 OVC028 None
2018-08-18 17:00 61 61 - 100 60° 10 - 29.83 29.83 3 -RA BR OVC009 None
2018-08-18 16:10 59 59 - 100 80° 9 - 29.84 29.85 3 -RA BR SCT004 OVC035 None
2018-08-18 16:00 59 59 - 100 70° 10 - 29.85 29.86 1 RA BR BKN004 OVC025 None
2018-08-18 15:22 59 59 - 100 60° 8 - 29.87 29.88 1 RA BR OVC016 None
2018-08-18 15:00 59 59 - 100 70° 7 - 29.87 29.88 2 -RA BR SCT004 OVC032 None
2018-08-18 14:00 59 59 - 100 90° 6 - 29.89 29.90 1 RA BR OVC004 None
2018-08-18 13:47 61 61 - 100 50° 7 - 29.89 29.89 2 -RA BR BKN004 OVC010 None
2018-08-18 13:00 59 59 - 100 40° 8 - 29.88 29.89 3 -RA BR OVC040 None
2018-08-18 12:00 61 57 - 87 360° 3 - 29.92 29.93 5 -RA BR SCT007 OVC030 None
2018-08-18 11:55 61 57 - 87 Variable 2 - 29.92 29.93 5 -RA BR SCT010 OVC020 None
2018-08-18 11:40 61 59 - 93 320° 2 - 29.91 29.92 5 -RA BR BKN012 OVC035 None
2018-08-18 11:00 63 61 - 93 - Calm - 29.92 29.93 10 -RA SCT025 OVC080 None
2018-08-18 10:23 64 61 - 88 230° 3 - 29.94 29.94 15 -RA OVC061 None
2018-08-18 10:00 64 61 - 88 230° 3 - 29.94 29.94 15 BKN063 OVC140 None
2018-08-18 09:00 64 59 - 82 190° 6 - 29.92 29.93 15 BKN070 OVC140 None
2018-08-18 08:00 63 57 - 82 180° 7 - 29.93 29.94 15 FEW083 OVC130 None
2018-08-18 07:00 63 55 - 77 170° 7 - 29.94 29.95 15 BKN140 BKN220 Pressure falling rapidly
2018-08-18 06:00 64 55 - 72 190° 6 - 29.97 29.97 15 FEW045 SCT160 BKN220 None
2018-08-18 05:00 63 57 - 82 170° 9 - 29.99 29.99 15 FEW045 BKN240 None
2018-08-18 04:00 63 55 - 77 170° 9 - 30.00 30.00 15 FEW052 SCT260 None
2018-08-18 03:00 63 57 - 82 160° 9 - 30.00 30.00 15 FEW260 None
2018-08-18 02:00 63 57 - 82 160° 9 - 30.01 30.02 15 FEW260 None
2018-08-18 01:00 63 54 - 72 170° 9 - 30.02 30.02 15 SCT260 None

Support USWX by starting your Amazon purchase here.